sensor_id;sensor_type;location;lat;lon;timestamp;temperature;humidity
6164;DHT22;3114;48.362;10.994;2022-09-09T00:01:49;17.70;99.90
6164;DHT22;3114;48.362;10.994;2022-09-09T00:04:25;17.90;99.90
6164;DHT22;3114;48.362;10.994;2022-09-09T00:06:59;18.00;99.90
6164;DHT22;3114;48.362;10.994;2022-09-09T00:09:36;18.10;99.90
6164;DHT22;3114;48.362;10.994;2022-09-09T00:12:11;18.10;99.90
6164;DHT22;3114;48.362;10.994;2022-09-09T00:14:47;18.10;99.90
6164;DHT22;3114;48.362;10.994;2022-09-09T00:17:23;18.20;99.90
6164;DHT22;3114;48.362;10.994;2022-09-09T00:19:58;18.10;99.90
6164;DHT22;3114;48.362;10.994;2022-09-09T00:22:29;17.90;99.90
6164;DHT22;3114;48.362;10.994;2022-09-09T00:25:04;17.90;99.90
6164;DHT22;3114;48.362;10.994;2022-09-09T00:27:41;17.90;99.90
6164;DHT22;3114;48.362;10.994;2022-09-09T00:30:16;17.80;99.90
6164;DHT22;3114;48.362;10.994;2022-09-09T00:32:46;17.70;99.90
6164;DHT22;3114;48.362;10.994;2022-09-09T00:35:18;17.40;99.90
6164;DHT22;3114;48.362;10.994;2022-09-09T00:37:46;17.40;99.90
6164;DHT22;3114;48.362;10.994;2022-09-09T00:40:22;17.60;99.90
6164;DHT22;3114;48.362;10.994;2022-09-09T00:43:00;17.70;99.90
6164;DHT22;3114;48.362;10.994;2022-09-09T00:45:51;17.80;99.90
6164;DHT22;3114;48.362;10.994;2022-09-09T00:48:26;17.90;99.90
6164;DHT22;3114;48.362;10.994;2022-09-09T00:50:57;17.80;99.90
6164;DHT22;3114;48.362;10.994;2022-09-09T00:53:36;17.90;99.90
6164;DHT22;3114;48.362;10.994;2022-09-09T00:56:12;18.10;99.90
6164;DHT22;3114;48.362;10.994;2022-09-09T00:58:49;18.10;99.90
6164;DHT22;3114;48.362;10.994;2022-09-09T01:01:17;17.90;99.90
6164;DHT22;3114;48.362;10.994;2022-09-09T01:03:49;18.00;99.90
6164;DHT22;3114;48.362;10.994;2022-09-09T01:06:22;17.90;99.90
6164;DHT22;3114;48.362;10.994;2022-09-09T01:09:02;17.90;99.90
6164;DHT22;3114;48.362;10.994;2022-09-09T01:11:36;17.70;99.90
6164;DHT22;3114;48.362;10.994;2022-09-09T01:14:16;17.70;99.90
6164;DHT22;3114;48.362;10.994;2022-09-09T01:16:46;17.70;99.90
6164;DHT22;3114;48.362;10.994;2022-09-09T01:19:20;17.80;99.90
6164;DHT22;3114;48.362;10.994;2022-09-09T01:22:00;17.90;99.90
6164;DHT22;3114;48.362;10.994;2022-09-09T01:24:35;18.10;99.90
6164;DHT22;3114;48.362;10.994;2022-09-09T01:27:06;17.80;99.90
6164;DHT22;3114;48.362;10.994;2022-09-09T01:29:34;17.90;99.90
6164;DHT22;3114;48.362;10.994;2022-09-09T01:32:02;17.90;99.90
6164;DHT22;3114;48.362;10.994;2022-09-09T01:34:32;18.10;99.90
6164;DHT22;3114;48.362;10.994;2022-09-09T01:37:02;18.00;99.90
6164;DHT22;3114;48.362;10.994;2022-09-09T01:41:58;17.90;99.90
6164;DHT22;3114;48.362;10.994;2022-09-09T01:44:27;18.00;99.90
6164;DHT22;3114;48.362;10.994;2022-09-09T01:46:54;17.90;99.90
6164;DHT22;3114;48.362;10.994;2022-09-09T01:49:22;17.90;99.90
6164;DHT22;3114;48.362;10.994;2022-09-09T01:51:53;17.90;99.90
6164;DHT22;3114;48.362;10.994;2022-09-09T01:54:21;17.90;99.90
6164;DHT22;3114;48.362;10.994;2022-09-09T01:56:57;17.80;99.90
6164;DHT22;3114;48.362;10.994;2022-09-09T01:59:44;17.90;99.90
6164;DHT22;3114;48.362;10.994;2022-09-09T02:02:17;17.70;99.90
6164;DHT22;3114;48.362;10.994;2022-09-09T02:04:47;17.70;99.90
6164;DHT22;3114;48.362;10.994;2022-09-09T02:07:24;17.60;99.90
6164;DHT22;3114;48.362;10.994;2022-09-09T02:09:59;17.60;99.90
6164;DHT22;3114;48.362;10.994;2022-09-09T02:12:28;17.60;99.90
6164;DHT22;3114;48.362;10.994;2022-09-09T02:15:03;17.50;99.90
6164;DHT22;3114;48.362;10.994;2022-09-09T02:17:34;17.50;99.90
6164;DHT22;3114;48.362;10.994;2022-09-09T02:20:06;17.40;99.90
6164;DHT22;3114;48.362;10.994;2022-09-09T02:22:35;17.30;99.90
6164;DHT22;3114;48.362;10.994;2022-09-09T02:25:07;17.20;99.90
6164;DHT22;3114;48.362;10.994;2022-09-09T02:27:35;17.30;99.90
6164;DHT22;3114;48.362;10.994;2022-09-09T02:30:04;17.30;99.90
6164;DHT22;3114;48.362;10.994;2022-09-09T02:32:34;17.30;99.90
6164;DHT22;3114;48.362;10.994;2022-09-09T02:35:06;17.30;99.90
6164;DHT22;3114;48.362;10.994;2022-09-09T02:37:38;17.40;99.90
6164;DHT22;3114;48.362;10.994;2022-09-09T02:40:07;17.30;99.90
6164;DHT22;3114;48.362;10.994;2022-09-09T02:42:38;17.30;99.90
6164;DHT22;3114;48.362;10.994;2022-09-09T02:45:08;17.30;99.90
6164;DHT22;3114;48.362;10.994;2022-09-09T02:47:37;17.20;99.90
6164;DHT22;3114;48.362;10.994;2022-09-09T02:50:12;17.20;99.90
6164;DHT22;3114;48.362;10.994;2022-09-09T02:52:55;17.30;99.90
6164;DHT22;3114;48.362;10.994;2022-09-09T02:55:34;17.30;99.90
6164;DHT22;3114;48.362;10.994;2022-09-09T02:58:05;17.30;99.90
6164;DHT22;3114;48.362;10.994;2022-09-09T03:00:35;17.30;99.90
6164;DHT22;3114;48.362;10.994;2022-09-09T03:03:03;17.20;99.90
6164;DHT22;3114;48.362;10.994;2022-09-09T03:05:30;17.30;99.90
6164;DHT22;3114;48.362;10.994;2022-09-09T03:07:57;17.20;99.90
6164;DHT22;3114;48.362;10.994;2022-09-09T03:10:24;17.20;99.90
6164;DHT22;3114;48.362;10.994;2022-09-09T03:12:51;17.10;99.90
6164;DHT22;3114;48.362;10.994;2022-09-09T03:15:18;17.00;99.90
6164;DHT22;3114;48.362;10.994;2022-09-09T03:17:46;17.00;99.90
6164;DHT22;3114;48.362;10.994;2022-09-09T03:20:13;17.10;99.90
6164;DHT22;3114;48.362;10.994;2022-09-09T03:22:40;17.10;99.90
6164;DHT22;3114;48.362;10.994;2022-09-09T03:25:07;17.10;99.90
6164;DHT22;3114;48.362;10.994;2022-09-09T03:27:34;17.10;99.90
6164;DHT22;3114;48.362;10.994;2022-09-09T03:30:02;17.10;99.90
6164;DHT22;3114;48.362;10.994;2022-09-09T03:32:29;17.10;99.90
6164;DHT22;3114;48.362;10.994;2022-09-09T03:34:58;17.10;99.90
6164;DHT22;3114;48.362;10.994;2022-09-09T03:37:25;17.10;99.90
6164;DHT22;3114;48.362;10.994;2022-09-09T03:39:51;17.10;99.90
6164;DHT22;3114;48.362;10.994;2022-09-09T03:42:20;17.10;99.90
6164;DHT22;3114;48.362;10.994;2022-09-09T03:44:47;17.00;99.90
6164;DHT22;3114;48.362;10.994;2022-09-09T03:47:15;17.00;99.90
6164;DHT22;3114;48.362;10.994;2022-09-09T03:49:42;17.00;99.90
6164;DHT22;3114;48.362;10.994;2022-09-09T03:52:11;17.00;99.90
6164;DHT22;3114;48.362;10.994;2022-09-09T03:54:38;16.90;99.90
6164;DHT22;3114;48.362;10.994;2022-09-09T03:57:05;16.90;99.90
6164;DHT22;3114;48.362;10.994;2022-09-09T03:59:31;16.90;99.90
6164;DHT22;3114;48.362;10.994;2022-09-09T04:01:58;16.90;99.90
6164;DHT22;3114;48.362;10.994;2022-09-09T04:04:25;16.90;99.90
6164;DHT22;3114;48.362;10.994;2022-09-09T04:06:52;16.90;99.90
6164;DHT22;3114;48.362;10.994;2022-09-09T04:09:20;16.80;99.90
6164;DHT22;3114;48.362;10.994;2022-09-09T04:11:47;16.90;99.90
6164;DHT22;3114;48.362;10.994;2022-09-09T04:14:15;16.80;99.90
6164;DHT22;3114;48.362;10.994;2022-09-09T04:16:42;16.70;99.90
6164;DHT22;3114;48.362;10.994;2022-09-09T04:19:10;16.70;99.90
6164;DHT22;3114;48.362;10.994;2022-09-09T04:21:38;16.60;99.90
6164;DHT22;3114;48.362;10.994;2022-09-09T04:24:06;16.70;99.90
6164;DHT22;3114;48.362;10.994;2022-09-09T04:26:35;16.70;99.90
6164;DHT22;3114;48.362;10.994;2022-09-09T04:29:03;16.80;99.90
6164;DHT22;3114;48.362;10.994;2022-09-09T04:31:30;16.90;99.90
6164;DHT22;3114;48.362;10.994;2022-09-09T04:33:57;17.00;99.90
6164;DHT22;3114;48.362;10.994;2022-09-09T04:38:51;17.10;99.90
6164;DHT22;3114;48.362;10.994;2022-09-09T04:41:18;17.20;99.90
6164;DHT22;3114;48.362;10.994;2022-09-09T04:43:46;17.20;99.90
6164;DHT22;3114;48.362;10.994;2022-09-09T04:46:13;17.20;99.90
6164;DHT22;3114;48.362;10.994;2022-09-09T04:48:48;17.20;99.90
6164;DHT22;3114;48.362;10.994;2022-09-09T04:51:15;17.30;99.90
6164;DHT22;3114;48.362;10.994;2022-09-09T04:53:42;17.20;99.90
6164;DHT22;3114;48.362;10.994;2022-09-09T04:56:10;17.20;99.90
6164;DHT22;3114;48.362;10.994;2022-09-09T04:58:37;17.30;99.90
6164;DHT22;3114;48.362;10.994;2022-09-09T05:01:08;17.20;99.90
6164;DHT22;3114;48.362;10.994;2022-09-09T05:03:35;17.30;99.90
6164;DHT22;3114;48.362;10.994;2022-09-09T05:06:03;17.40;99.90
6164;DHT22;3114;48.362;10.994;2022-09-09T05:08:31;17.40;99.90
6164;DHT22;3114;48.362;10.994;2022-09-09T05:10:58;17.40;99.90
6164;DHT22;3114;48.362;10.994;2022-09-09T05:13:25;17.50;99.90
6164;DHT22;3114;48.362;10.994;2022-09-09T05:15:53;17.50;99.90
6164;DHT22;3114;48.362;10.994;2022-09-09T05:18:21;17.50;99.90
6164;DHT22;3114;48.362;10.994;2022-09-09T05:20:48;17.50;99.90
6164;DHT22;3114;48.362;10.994;2022-09-09T05:23:16;17.60;99.90
6164;DHT22;3114;48.362;10.994;2022-09-09T05:25:43;17.70;99.90
6164;DHT22;3114;48.362;10.994;2022-09-09T05:28:12;17.70;99.90
6164;DHT22;3114;48.362;10.994;2022-09-09T05:30:39;17.70;99.90
6164;DHT22;3114;48.362;10.994;2022-09-09T05:33:05;17.80;99.90
6164;DHT22;3114;48.362;10.994;2022-09-09T05:35:36;17.80;99.90
6164;DHT22;3114;48.362;10.994;2022-09-09T05:38:03;17.80;99.90
6164;DHT22;3114;48.362;10.994;2022-09-09T05:40:30;17.80;99.90
6164;DHT22;3114;48.362;10.994;2022-09-09T05:43:00;17.90;99.90
6164;DHT22;3114;48.362;10.994;2022-09-09T05:45:28;17.60;99.90
6164;DHT22;3114;48.362;10.994;2022-09-09T05:47:55;17.10;99.90
6164;DHT22;3114;48.362;10.994;2022-09-09T05:50:22;17.20;99.90
6164;DHT22;3114;48.362;10.994;2022-09-09T05:52:54;17.00;99.90
6164;DHT22;3114;48.362;10.994;2022-09-09T05:55:21;16.10;99.90
6164;DHT22;3114;48.362;10.994;2022-09-09T05:57:48;15.80;99.90
6164;DHT22;3114;48.362;10.994;2022-09-09T06:00:17;16.00;99.90
6164;DHT22;3114;48.362;10.994;2022-09-09T06:02:50;15.90;99.90
6164;DHT22;3114;48.362;10.994;2022-09-09T06:05:18;15.90;99.90
6164;DHT22;3114;48.362;10.994;2022-09-09T06:07:46;15.80;99.90
6164;DHT22;3114;48.362;10.994;2022-09-09T06:10:14;15.90;99.90
6164;DHT22;3114;48.362;10.994;2022-09-09T06:12:41;16.00;99.90
6164;DHT22;3114;48.362;10.994;2022-09-09T06:15:09;16.30;99.90
6164;DHT22;3114;48.362;10.994;2022-09-09T06:17:35;16.20;99.90
6164;DHT22;3114;48.362;10.994;2022-09-09T06:20:03;16.40;99.90
6164;DHT22;3114;48.362;10.994;2022-09-09T06:22:30;16.60;99.90
6164;DHT22;3114;48.362;10.994;2022-09-09T06:24:57;16.80;99.90
6164;DHT22;3114;48.362;10.994;2022-09-09T06:27:27;16.80;99.90
6164;DHT22;3114;48.362;10.994;2022-09-09T06:29:54;17.50;99.90
6164;DHT22;3114;48.362;10.994;2022-09-09T06:32:20;16.80;99.90
6164;DHT22;3114;48.362;10.994;2022-09-09T06:34:47;16.90;99.90
6164;DHT22;3114;48.362;10.994;2022-09-09T06:37:14;16.60;99.90
6164;DHT22;3114;48.362;10.994;2022-09-09T06:39:41;16.40;99.90
6164;DHT22;3114;48.362;10.994;2022-09-09T06:42:08;16.50;99.90
6164;DHT22;3114;48.362;10.994;2022-09-09T06:44:36;16.70;99.90
6164;DHT22;3114;48.362;10.994;2022-09-09T06:47:03;16.90;99.90
6164;DHT22;3114;48.362;10.994;2022-09-09T06:49:30;16.90;99.90
6164;DHT22;3114;48.362;10.994;2022-09-09T06:51:58;16.60;99.90
6164;DHT22;3114;48.362;10.994;2022-09-09T06:54:25;16.90;99.90
6164;DHT22;3114;48.362;10.994;2022-09-09T07:01:48;17.30;99.90
6164;DHT22;3114;48.362;10.994;2022-09-09T07:04:17;17.30;99.90
6164;DHT22;3114;48.362;10.994;2022-09-09T07:06:44;17.60;99.90
6164;DHT22;3114;48.362;10.994;2022-09-09T07:09:13;17.60;99.90
6164;DHT22;3114;48.362;10.994;2022-09-09T07:11:42;17.20;99.90
6164;DHT22;3114;48.362;10.994;2022-09-09T07:14:10;17.50;99.90
6164;DHT22;3114;48.362;10.994;2022-09-09T07:16:38;17.70;99.90
6164;DHT22;3114;48.362;10.994;2022-09-09T07:19:06;17.80;99.90
6164;DHT22;3114;48.362;10.994;2022-09-09T07:21:33;18.00;99.90
6164;DHT22;3114;48.362;10.994;2022-09-09T07:24:00;18.00;99.90
6164;DHT22;3114;48.362;10.994;2022-09-09T07:26:29;18.10;99.90
6164;DHT22;3114;48.362;10.994;2022-09-09T07:28:56;18.20;99.90
6164;DHT22;3114;48.362;10.994;2022-09-09T07:31:27;17.90;99.90
6164;DHT22;3114;48.362;10.994;2022-09-09T07:33:56;17.70;99.90
6164;DHT22;3114;48.362;10.994;2022-09-09T07:36:26;17.80;99.90
6164;DHT22;3114;48.362;10.994;2022-09-09T07:38:55;17.60;99.90
6164;DHT22;3114;48.362;10.994;2022-09-09T07:41:24;17.90;99.90
6164;DHT22;3114;48.362;10.994;2022-09-09T07:43:52;18.00;99.90
6164;DHT22;3114;48.362;10.994;2022-09-09T07:46:20;18.20;99.90
6164;DHT22;3114;48.362;10.994;2022-09-09T07:48:49;17.80;99.90
6164;DHT22;3114;48.362;10.994;2022-09-09T07:51:19;17.90;99.90
6164;DHT22;3114;48.362;10.994;2022-09-09T07:53:52;17.90;99.90
6164;DHT22;3114;48.362;10.994;2022-09-09T07:56:19;17.80;99.90
6164;DHT22;3114;48.362;10.994;2022-09-09T07:58:50;17.90;99.90
6164;DHT22;3114;48.362;10.994;2022-09-09T08:01:18;18.20;99.90
6164;DHT22;3114;48.362;10.994;2022-09-09T08:03:47;17.80;99.90
6164;DHT22;3114;48.362;10.994;2022-09-09T08:06:14;18.00;99.90
6164;DHT22;3114;48.362;10.994;2022-09-09T08:08:41;17.90;99.90
6164;DHT22;3114;48.362;10.994;2022-09-09T08:13:39;18.30;99.90
6164;DHT22;3114;48.362;10.994;2022-09-09T08:16:08;18.50;99.90
6164;DHT22;3114;48.362;10.994;2022-09-09T08:18:35;18.50;99.90
6164;DHT22;3114;48.362;10.994;2022-09-09T08:21:08;18.70;99.90
6164;DHT22;3114;48.362;10.994;2022-09-09T08:23:37;18.90;99.90
6164;DHT22;3114;48.362;10.994;2022-09-09T08:26:06;18.60;99.90
6164;DHT22;3114;48.362;10.994;2022-09-09T08:28:36;18.50;99.90
6164;DHT22;3114;48.362;10.994;2022-09-09T08:31:12;18.50;99.90
6164;DHT22;3114;48.362;10.994;2022-09-09T08:33:39;18.50;99.90
6164;DHT22;3114;48.362;10.994;2022-09-09T08:36:09;18.60;99.90
6164;DHT22;3114;48.362;10.994;2022-09-09T08:38:37;18.70;99.90
6164;DHT22;3114;48.362;10.994;2022-09-09T08:41:17;18.40;99.90
6164;DHT22;3114;48.362;10.994;2022-09-09T08:43:52;18.60;99.90
6164;DHT22;3114;48.362;10.994;2022-09-09T08:46:28;18.80;99.90
6164;DHT22;3114;48.362;10.994;2022-09-09T08:48:59;18.70;99.90
6164;DHT22;3114;48.362;10.994;2022-09-09T08:51:31;18.40;99.90
6164;DHT22;3114;48.362;10.994;2022-09-09T08:56:32;18.30;99.90
6164;DHT22;3114;48.362;10.994;2022-09-09T08:59:03;18.40;99.90
6164;DHT22;3114;48.362;10.994;2022-09-09T09:01:41;18.20;99.90
6164;DHT22;3114;48.362;10.994;2022-09-09T09:04:22;18.40;99.90
6164;DHT22;3114;48.362;10.994;2022-09-09T09:07:00;18.20;99.90
6164;DHT22;3114;48.362;10.994;2022-09-09T09:09:35;18.40;99.90
6164;DHT22;3114;48.362;10.994;2022-09-09T09:12:15;18.70;99.90
6164;DHT22;3114;48.362;10.994;2022-09-09T09:14:46;18.90;99.90
6164;DHT22;3114;48.362;10.994;2022-09-09T09:17:15;19.30;99.90
6164;DHT22;3114;48.362;10.994;2022-09-09T09:19:46;19.60;99.90
6164;DHT22;3114;48.362;10.994;2022-09-09T09:22:17;19.90;99.90
6164;DHT22;3114;48.362;10.994;2022-09-09T09:24:52;20.10;99.90
6164;DHT22;3114;48.362;10.994;2022-09-09T09:27:31;20.30;99.90
6164;DHT22;3114;48.362;10.994;2022-09-09T09:30:01;20.50;99.90
6164;DHT22;3114;48.362;10.994;2022-09-09T09:32:31;20.60;99.90
6164;DHT22;3114;48.362;10.994;2022-09-09T09:34:59;20.10;99.90
6164;DHT22;3114;48.362;10.994;2022-09-09T09:37:31;19.90;99.90
6164;DHT22;3114;48.362;10.994;2022-09-09T09:40:09;19.80;99.90
6164;DHT22;3114;48.362;10.994;2022-09-09T09:42:37;20.00;99.90
6164;DHT22;3114;48.362;10.994;2022-09-09T09:45:16;20.30;99.90
6164;DHT22;3114;48.362;10.994;2022-09-09T09:47:43;20.40;99.90
6164;DHT22;3114;48.362;10.994;2022-09-09T09:50:17;20.50;99.90
6164;DHT22;3114;48.362;10.994;2022-09-09T09:52:54;20.60;99.90
6164;DHT22;3114;48.362;10.994;2022-09-09T09:55:22;20.70;99.90
6164;DHT22;3114;48.362;10.994;2022-09-09T09:57:49;20.10;99.90
6164;DHT22;3114;48.362;10.994;2022-09-09T10:00:20;20.10;99.90
6164;DHT22;3114;48.362;10.994;2022-09-09T10:02:48;20.10;99.90
6164;DHT22;3114;48.362;10.994;2022-09-09T10:05:19;19.70;99.90
6164;DHT22;3114;48.362;10.994;2022-09-09T10:07:47;19.70;99.90
6164;DHT22;3114;48.362;10.994;2022-09-09T10:10:36;19.50;99.90
6164;DHT22;3114;48.362;10.994;2022-09-09T10:13:10;19.60;99.90
6164;DHT22;3114;48.362;10.994;2022-09-09T10:15:46;20.00;99.90
6164;DHT22;3114;48.362;10.994;2022-09-09T10:18:28;20.20;99.90
6164;DHT22;3114;48.362;10.994;2022-09-09T10:21:06;20.30;99.90
6164;DHT22;3114;48.362;10.994;2022-09-09T10:23:47;20.50;99.90
6164;DHT22;3114;48.362;10.994;2022-09-09T10:26:30;20.10;99.90
6164;DHT22;3114;48.362;10.994;2022-09-09T10:29:23;19.80;99.90
6164;DHT22;3114;48.362;10.994;2022-09-09T10:32:00;19.60;99.90
6164;DHT22;3114;48.362;10.994;2022-09-09T10:34:42;19.90;99.90
6164;DHT22;3114;48.362;10.994;2022-09-09T10:37:18;20.20;99.90
6164;DHT22;3114;48.362;10.994;2022-09-09T10:39:49;20.20;99.90
6164;DHT22;3114;48.362;10.994;2022-09-09T10:42:28;20.10;99.90
6164;DHT22;3114;48.362;10.994;2022-09-09T10:45:07;20.20;99.90
6164;DHT22;3114;48.362;10.994;2022-09-09T10:47:59;20.10;99.90
6164;DHT22;3114;48.362;10.994;2022-09-09T10:50:48;20.20;99.90
6164;DHT22;3114;48.362;10.994;2022-09-09T10:53:22;20.50;99.90
6164;DHT22;3114;48.362;10.994;2022-09-09T10:55:53;20.70;99.90
6164;DHT22;3114;48.362;10.994;2022-09-09T10:58:26;20.70;99.90
6164;DHT22;3114;48.362;10.994;2022-09-09T11:00:57;20.90;99.90
6164;DHT22;3114;48.362;10.994;2022-09-09T11:03:29;20.90;99.90
6164;DHT22;3114;48.362;10.994;2022-09-09T11:05:59;21.00;99.90
6164;DHT22;3114;48.362;10.994;2022-09-09T11:08:29;20.90;99.90
6164;DHT22;3114;48.362;10.994;2022-09-09T11:11:00;20.70;99.90
6164;DHT22;3114;48.362;10.994;2022-09-09T11:13:35;20.70;99.90
6164;DHT22;3114;48.362;10.994;2022-09-09T11:16:19;20.50;99.90
6164;DHT22;3114;48.362;10.994;2022-09-09T11:18:50;20.50;99.90
6164;DHT22;3114;48.362;10.994;2022-09-09T11:21:24;20.20;99.90
6164;DHT22;3114;48.362;10.994;2022-09-09T11:23:55;20.40;99.90
6164;DHT22;3114;48.362;10.994;2022-09-09T11:26:30;20.20;99.90
6164;DHT22;3114;48.362;10.994;2022-09-09T11:29:15;19.70;99.90
6164;DHT22;3114;48.362;10.994;2022-09-09T11:31:58;19.70;99.90
6164;DHT22;3114;48.362;10.994;2022-09-09T11:34:35;19.80;99.90
6164;DHT22;3114;48.362;10.994;2022-09-09T11:37:23;19.70;99.90
6164;DHT22;3114;48.362;10.994;2022-09-09T11:40:18;19.70;99.90
6164;DHT22;3114;48.362;10.994;2022-09-09T11:42:46;19.60;99.90
6164;DHT22;3114;48.362;10.994;2022-09-09T11:45:23;19.70;99.90
6164;DHT22;3114;48.362;10.994;2022-09-09T11:47:55;19.60;99.90
6164;DHT22;3114;48.362;10.994;2022-09-09T11:50:44;20.00;99.90
6164;DHT22;3114;48.362;10.994;2022-09-09T11:53:22;20.50;99.90
6164;DHT22;3114;48.362;10.994;2022-09-09T11:56:08;21.00;99.90
6164;DHT22;3114;48.362;10.994;2022-09-09T11:58:42;20.80;99.90
6164;DHT22;3114;48.362;10.994;2022-09-09T12:01:15;21.00;99.90
6164;DHT22;3114;48.362;10.994;2022-09-09T12:03:45;21.20;99.90
6164;DHT22;3114;48.362;10.994;2022-09-09T12:06:17;21.60;99.90
6164;DHT22;3114;48.362;10.994;2022-09-09T12:08:50;23.20;99.90
6164;DHT22;3114;48.362;10.994;2022-09-09T12:11:25;23.40;99.90
6164;DHT22;3114;48.362;10.994;2022-09-09T12:13:56;22.80;99.90
6164;DHT22;3114;48.362;10.994;2022-09-09T12:16:33;22.60;99.90
6164;DHT22;3114;48.362;10.994;2022-09-09T12:19:06;22.20;99.90
6164;DHT22;3114;48.362;10.994;2022-09-09T12:21:39;23.00;99.90
6164;DHT22;3114;48.362;10.994;2022-09-09T12:24:11;23.30;99.90
6164;DHT22;3114;48.362;10.994;2022-09-09T12:26:42;23.40;99.90
6164;DHT22;3114;48.362;10.994;2022-09-09T12:29:21;23.30;99.90
6164;DHT22;3114;48.362;10.994;2022-09-09T12:31:54;23.60;99.90
6164;DHT22;3114;48.362;10.994;2022-09-09T12:34:32;23.80;99.90
6164;DHT22;3114;48.362;10.994;2022-09-09T12:37:06;23.80;99.90
6164;DHT22;3114;48.362;10.994;2022-09-09T12:39:40;23.70;99.90
6164;DHT22;3114;48.362;10.994;2022-09-09T12:42:16;22.80;99.90
6164;DHT22;3114;48.362;10.994;2022-09-09T12:47:18;22.70;99.90
6164;DHT22;3114;48.362;10.994;2022-09-09T12:49:47;22.70;99.90
6164;DHT22;3114;48.362;10.994;2022-09-09T12:52:24;22.70;99.90
6164;DHT22;3114;48.362;10.994;2022-09-09T12:54:53;22.60;99.90
6164;DHT22;3114;48.362;10.994;2022-09-09T12:57:22;22.70;99.90
6164;DHT22;3114;48.362;10.994;2022-09-09T12:59:51;22.70;99.90
6164;DHT22;3114;48.362;10.994;2022-09-09T13:02:21;22.20;99.90
6164;DHT22;3114;48.362;10.994;2022-09-09T13:04:49;21.80;99.90
6164;DHT22;3114;48.362;10.994;2022-09-09T13:07:18;21.60;99.90
6164;DHT22;3114;48.362;10.994;2022-09-09T13:09:46;21.50;99.90
6164;DHT22;3114;48.362;10.994;2022-09-09T13:12:17;21.50;99.90
6164;DHT22;3114;48.362;10.994;2022-09-09T13:14:47;21.50;99.90
6164;DHT22;3114;48.362;10.994;2022-09-09T13:17:20;21.80;99.90
6164;DHT22;3114;48.362;10.994;2022-09-09T13:19:48;22.70;99.90
6164;DHT22;3114;48.362;10.994;2022-09-09T13:22:23;23.90;99.90
6164;DHT22;3114;48.362;10.994;2022-09-09T13:25:04;24.60;99.90
6164;DHT22;3114;48.362;10.994;2022-09-09T13:27:33;25.00;99.90
6164;DHT22;3114;48.362;10.994;2022-09-09T13:32:46;23.80;99.90
6164;DHT22;3114;48.362;10.994;2022-09-09T13:35:23;23.40;99.90
6164;DHT22;3114;48.362;10.994;2022-09-09T13:37:52;23.20;99.90
6164;DHT22;3114;48.362;10.994;2022-09-09T13:40:20;22.70;99.90
6164;DHT22;3114;48.362;10.994;2022-09-09T13:42:51;23.00;99.90
6164;DHT22;3114;48.362;10.994;2022-09-09T13:45:20;24.70;99.90
6164;DHT22;3114;48.362;10.994;2022-09-09T13:47:49;28.70;99.90
6164;DHT22;3114;48.362;10.994;2022-09-09T13:50:22;33.00;99.90
6164;DHT22;3114;48.362;10.994;2022-09-09T13:52:49;36.20;99.90
6164;DHT22;3114;48.362;10.994;2022-09-09T13:55:18;37.10;99.90
6164;DHT22;3114;48.362;10.994;2022-09-09T13:57:53;33.80;99.90
6164;DHT22;3114;48.362;10.994;2022-09-09T14:00:21;29.50;99.90
6164;DHT22;3114;48.362;10.994;2022-09-09T14:02:50;26.70;99.90
6164;DHT22;3114;48.362;10.994;2022-09-09T14:07:44;24.40;99.90
6164;DHT22;3114;48.362;10.994;2022-09-09T14:10:12;24.10;99.90
6164;DHT22;3114;48.362;10.994;2022-09-09T14:12:40;23.80;99.90
6164;DHT22;3114;48.362;10.994;2022-09-09T14:15:10;23.40;99.90
6164;DHT22;3114;48.362;10.994;2022-09-09T14:17:37;22.90;99.90
6164;DHT22;3114;48.362;10.994;2022-09-09T14:20:05;22.30;99.90
6164;DHT22;3114;48.362;10.994;2022-09-09T14:22:34;21.60;99.90
6164;DHT22;3114;48.362;10.994;2022-09-09T14:25:02;21.40;99.90
6164;DHT22;3114;48.362;10.994;2022-09-09T14:27:29;20.80;99.90
6164;DHT22;3114;48.362;10.994;2022-09-09T14:29:58;19.00;99.90
6164;DHT22;3114;48.362;10.994;2022-09-09T14:32:25;17.80;99.90
6164;DHT22;3114;48.362;10.994;2022-09-09T14:34:56;16.70;99.90
6164;DHT22;3114;48.362;10.994;2022-09-09T14:37:23;16.30;99.90
6164;DHT22;3114;48.362;10.994;2022-09-09T14:39:50;16.90;99.90
6164;DHT22;3114;48.362;10.994;2022-09-09T14:42:23;17.60;99.90
6164;DHT22;3114;48.362;10.994;2022-09-09T14:44:50;18.60;99.90
6164;DHT22;3114;48.362;10.994;2022-09-09T14:47:20;19.90;99.90
6164;DHT22;3114;48.362;10.994;2022-09-09T14:49:47;20.60;99.90
6164;DHT22;3114;48.362;10.994;2022-09-09T14:52:15;20.50;99.90
6164;DHT22;3114;48.362;10.994;2022-09-09T14:54:44;20.30;99.90
6164;DHT22;3114;48.362;10.994;2022-09-09T14:57:11;20.30;99.90
6164;DHT22;3114;48.362;10.994;2022-09-09T14:59:38;20.40;99.90
6164;DHT22;3114;48.362;10.994;2022-09-09T15:02:05;20.40;99.90
6164;DHT22;3114;48.362;10.994;2022-09-09T15:04:33;20.50;99.90
6164;DHT22;3114;48.362;10.994;2022-09-09T15:07:00;20.50;99.90
6164;DHT22;3114;48.362;10.994;2022-09-09T15:09:27;20.60;99.90
6164;DHT22;3114;48.362;10.994;2022-09-09T15:11:54;20.60;99.90
6164;DHT22;3114;48.362;10.994;2022-09-09T15:14:21;20.70;99.90
6164;DHT22;3114;48.362;10.994;2022-09-09T15:16:48;20.70;99.90
6164;DHT22;3114;48.362;10.994;2022-09-09T15:19:15;20.80;99.90
6164;DHT22;3114;48.362;10.994;2022-09-09T15:21:43;21.20;99.90
6164;DHT22;3114;48.362;10.994;2022-09-09T15:24:10;21.40;99.90
6164;DHT22;3114;48.362;10.994;2022-09-09T15:26:38;21.40;99.90
6164;DHT22;3114;48.362;10.994;2022-09-09T15:29:05;21.40;99.90
6164;DHT22;3114;48.362;10.994;2022-09-09T15:31:32;21.30;99.90
6164;DHT22;3114;48.362;10.994;2022-09-09T15:34:01;21.20;99.90
6164;DHT22;3114;48.362;10.994;2022-09-09T15:36:38;21.00;99.90
6164;DHT22;3114;48.362;10.994;2022-09-09T15:41:35;21.00;99.90
6164;DHT22;3114;48.362;10.994;2022-09-09T15:44:02;21.00;99.90
6164;DHT22;3114;48.362;10.994;2022-09-09T15:46:31;21.00;99.90
6164;DHT22;3114;48.362;10.994;2022-09-09T15:49:03;21.00;99.90
6164;DHT22;3114;48.362;10.994;2022-09-09T15:51:30;21.10;99.90
6164;DHT22;3114;48.362;10.994;2022-09-09T15:53:58;21.10;99.90
6164;DHT22;3114;48.362;10.994;2022-09-09T15:56:39;20.90;99.90
6164;DHT22;3114;48.362;10.994;2022-09-09T15:59:06;20.90;99.90
6164;DHT22;3114;48.362;10.994;2022-09-09T16:01:34;20.60;99.90
6164;DHT22;3114;48.362;10.994;2022-09-09T16:04:01;20.40;99.90
6164;DHT22;3114;48.362;10.994;2022-09-09T16:06:29;20.50;99.90
6164;DHT22;3114;48.362;10.994;2022-09-09T16:08:58;20.60;99.90
6164;DHT22;3114;48.362;10.994;2022-09-09T16:11:27;20.80;99.90
6164;DHT22;3114;48.362;10.994;2022-09-09T16:13:56;21.00;99.90
6164;DHT22;3114;48.362;10.994;2022-09-09T16:16:25;21.10;99.90
6164;DHT22;3114;48.362;10.994;2022-09-09T16:18:54;21.10;99.90
6164;DHT22;3114;48.362;10.994;2022-09-09T16:21:24;21.20;99.90
6164;DHT22;3114;48.362;10.994;2022-09-09T16:23:52;21.20;99.90
6164;DHT22;3114;48.362;10.994;2022-09-09T16:26:20;20.90;99.90
6164;DHT22;3114;48.362;10.994;2022-09-09T16:28:47;20.80;99.90
6164;DHT22;3114;48.362;10.994;2022-09-09T16:31:19;20.70;99.90
6164;DHT22;3114;48.362;10.994;2022-09-09T16:33:47;20.50;99.90